Hovedside
METAR-TAF:

METAR-TAF

Lufthavner :

Molde lufthavn. Årø

Molde, Norge

breddegrad: 62-45N, lengdegrad: 007-16E, høyde over havet: 0 m

Gjeldene værobservasjon

Denne rapporten ble laget for 25 minutter siden, klokken 19:20 UTC
Vind 13 kt fra Sørvest
Temperatur 8°C
Luftfuktighet 53%
Trykk 1019 hPa
Sikt 10 km eller mer

METAR: ENML 071920Z AUTO 22013KT 9999NDV NCD 08/M01 Q1019

Tid: 21:45 (19:45 UTC)

Varsel

Denne rapporten ble laget for 5 timer og 45 minutter siden, klokken 14:00 UTC
Varsel gyldig fra 07. klokken 15 UTC til 07. klokken 19 UTC
Vind 12 kt fra Vest-sørvest
Sikt 10 km eller mer
Få skyer i en høyde av 4000 ft
Midlertidig
fra 07. klokken 15 UTC til 07. klokken 17 UTC
Vind 18 kt fra Vest-sørvest med vindkast opp mot 28 kt

TAF: ENML 071400Z 0715/0719 24012KT 9999 FEW040 TEMPO 0715/0717 25018G28KT

Værobservasjoner og værvarsel for over 4000 flyplasser (METAR- og TAF-rapporter).

Tilgjengelige stasjoner er representert av de røde og gule prikkene på kartet.

Hold musepekeren over prikken for å se navnet på stasjonen.

Klikk så for å se værobservasjoner og -varsler.

For å forandre kartet kan du klikke på den grønne knappen med svart kryss for å zoome inn, på den grønne knappen med strek for å zoome ut, eller på de grønne pilene for å se tilstøtende kart.


METAR-TAF: